Nash, North Dakota
Current Conditions -  °F | °C
As of 4:35 AM on Thursday 23 Oct 2014 (Local Time) from KGAF Reporting Station
Clear Clear  
Wind Chill: 40°   Ceiling: Unl
Heat Index: 45°   Visibility: 10mi
Dew Point: 45°   Wind: 8mph
Humidity: 100%   Direction: 230°SW
Pressure: 29.81"   Gusts: NA
Location:  48.4031°N, 97.4245°W
Report Text: KGAF 230935Z AUTO 23007KT 10SM CLR 07/07 A2981 RMK AO2
Loading
Personal Weather Stations






























Interactive Weather Map
Tropical Storm Tracking
New forecast layout! Learn more

10-Day Weather Forecast

Advertisements
Track Severe Weather on mobile